Time;durP1;ratioP1;P1;durP2;ratioP2;P2;SDS_P1;SDS_P2;PMS_P1;PMS_P2;Temp;Humidity;BMP_temperature;BMP_pressure;BME280_temperature;BME280_humidity;BME280_pressure;Samples;Min_cycle;Max_cycle;Signal;HPM_P1;HPM_P2
2023/07/04 00:01:05;;;;;;;14.32;4.38;;;;;;;14.08;100.00;100340.63;5032056;28;20041;-64
2023/07/04 00:03:34;;;;;;;16.63;4.95;;;;;;;14.05;100.00;100339.13;5032674;28;20053;-65
2023/07/04 00:06:01;;;;;;;11.07;4.18;;;;;;;14.03;100.00;100330.38;5032796;28;20755;-64
2023/07/04 00:08:29;;;;;;;14.48;4.50;;;;;;;14.03;100.00;100324.16;5033110;28;20056;-64
2023/07/04 00:10:57;;;;;;;16.30;4.43;;;;;;;14.00;100.00;100325.38;5032973;28;20056;-65
2023/07/04 00:13:24;;;;;;;16.35;4.55;;;;;;;14.03;100.00;100329.56;5032476;28;20049;-64
2023/07/04 00:15:52;;;;;;;14.95;4.88;;;;;;;14.03;100.00;100318.75;5033371;28;20461;-64
2023/07/04 00:18:20;;;;;;;16.80;5.20;;;;;;;14.03;100.00;100316.06;5033159;28;20091;-65
2023/07/04 00:20:53;;;;;;;15.05;4.60;;;;;;;14.10;100.00;100325.06;5033150;28;20079;-65
2023/07/04 00:23:27;;;;;;;17.00;4.50;;;;;;;14.10;100.00;100324.22;5033009;28;20493;-65
2023/07/04 00:25:55;;;;;;;15.45;4.78;;;;;;;14.04;100.00;100310.47;5032538;28;20045;-65
2023/07/04 00:28:23;;;;;;;14.98;4.80;;;;;;;14.05;100.00;100311.34;5033282;28;20118;-65
2023/07/04 00:30:52;;;;;;;12.13;4.50;;;;;;;14.12;100.00;100323.00;5032984;28;20045;-65
2023/07/04 00:33:20;;;;;;;12.27;4.45;;;;;;;14.08;100.00;100316.34;5032262;28;20049;-64
2023/07/04 00:35:47;;;;;;;12.98;4.60;;;;;;;14.08;100.00;100318.19;5032905;28;20084;-65
2023/07/04 00:38:14;;;;;;;16.60;4.88;;;;;;;14.07;100.00;100322.75;5032349;28;20405;-65
2023/07/04 00:40:40;;;;;;;16.77;5.28;;;;;;;14.10;100.00;100314.25;5032586;28;20079;-66
2023/07/04 00:43:12;;;;;;;16.92;4.80;;;;;;;14.10;100.00;100314.25;5032588;28;20092;-65
2023/07/04 00:45:43;;;;;;;16.70;4.78;;;;;;;14.05;100.00;100312.16;5032549;28;20494;-65
2023/07/04 00:48:11;;;;;;;;;;;;;;;14.11;100.00;100320.50;5033373;28;20099;-66
2023/07/04 00:50:43;;;;;;;18.98;5.32;;;;;;;14.10;100.00;100318.84;5030972;28;19921;-65
2023/07/04 00:53:12;;;;;;;16.05;4.65;;;;;;;14.09;100.00;100318.00;5032029;28;20056;-66
2023/07/04 00:55:46;;;;;;;15.20;4.65;;;;;;;14.12;100.00;100316.78;5031930;28;20099;-64
2023/07/04 00:58:12;;;;;;;11.77;4.53;;;;;;;14.11;100.00;100321.31;5030942;28;21530;-65
2023/07/04 01:00:39;;;;;;;16.42;5.13;;;;;;;14.09;100.00;100320.69;5029593;28;20057;-65
2023/07/04 01:03:14;;;;;;;19.77;4.88;;;;;;;14.08;100.00;100316.34;5030886;28;20343;-64
2023/07/04 01:09:28;;;;;;;16.33;4.38;;;;;;;14.12;100.00;100319.50;5034765;28;20056;-63
2023/07/04 01:11:56;;;;;;;15.02;4.97;;;;;;;14.11;100.00;100315.94;5030634;28;20493;-64
2023/07/04 01:14:25;;;;;;;15.30;5.25;;;;;;;14.11;100.00;100312.41;5031002;28;20099;-63
2023/07/04 01:16:53;;;;;;;16.33;4.65;;;;;;;14.17;100.00;100311.63;5031835;28;20056;-63
2023/07/04 01:19:27;;;;;;;16.65;4.85;;;;;;;14.17;100.00;100309.75;5031913;28;20145;-67
2023/07/04 01:22:29;;;;;;;18.05;4.63;;;;;;;14.14;100.00;100304.75;5031485;28;20460;-62
2023/07/04 01:25:07;;;;;;;12.88;4.63;;;;;;;14.15;100.00;100314.53;5030678;28;20041;-65
2023/07/04 01:27:35;;;;;;;13.38;4.30;;;;;;;14.23;100.00;100313.56;5030790;28;20038;-64
2023/07/04 01:30:05;;;;;;;19.40;5.65;;;;;;;14.20;100.00;100308.56;5030765;28;20045;-64
2023/07/04 01:32:35;;;;;;;13.32;4.32;;;;;;;14.19;100.00;100314.97;5030871;28;20073;-65
2023/07/04 01:35:03;;;;;;;24.17;5.40;;;;;;;14.18;100.00;100311.44;5030621;28;20460;-64
2023/07/04 01:37:30;;;;;;;15.60;4.53;;;;;;;14.19;100.00;100301.50;5030783;28;20072;-63
2023/07/04 01:40:00;;;;;;;9.82;4.10;;;;;;;14.19;100.00;100302.31;5030242;28;20105;-66
2023/07/04 01:42:33;;;;;;;13.30;4.38;;;;;;;14.20;100.00;100312.09;5030224;28;20464;-64
2023/07/04 01:45:03;;;;;;;13.10;4.63;;;;;;;14.19;100.00;100305.03;5030257;28;20077;-65
2023/07/04 01:47:31;;;;;;;12.38;4.68;;;;;;;14.17;100.00;100309.75;5030254;28;20060;-65
2023/07/04 01:49:58;;;;;;;12.95;4.63;;;;;;;14.16;100.00;100307.28;5029982;28;20052;-64
2023/07/04 01:52:26;;;;;;;14.77;4.82;;;;;;;14.20;100.00;100312.09;5042051;28;20045;-65
2023/07/04 01:54:54;;;;;;;13.55;4.45;;;;;;;14.21;100.00;100313.75;5050024;28;20041;-62
2023/07/04 01:57:20;;;;;;;15.60;4.72;;;;;;;14.22;100.00;100322.66;5050382;28;20044;-64
2023/07/04 01:59:47;;;;;;;14.32;4.20;;;;;;;14.19;100.00;100313.13;5050468;28;20075;-64
2023/07/04 02:02:14;;;;;;;19.40;7.10;;;;;;;14.18;100.00;100322.22;5050266;28;20101;-64
2023/07/04 02:04:41;;;;;;;16.10;5.75;;;;;;;14.20;100.00;100314.78;5050221;28;20045;-65
2023/07/04 02:07:08;;;;;;;17.10;5.78;;;;;;;14.14;100.00;100315.53;5050397;28;20045;-65
2023/07/04 02:09:34;;;;;;;13.13;5.03;;;;;;;14.16;100.00;100318.06;5050868;28;20079;-64
2023/07/04 02:12:01;;;;;;;13.43;4.75;;;;;;;14.05;100.00;100314.03;5049049;28;20037;-64
2023/07/04 02:14:27;;;;;;;11.90;4.22;;;;;;;14.04;100.00;100313.16;5050150;28;20064;-65
2023/07/04 02:16:54;;;;;;;14.43;5.05;;;;;;;14.01;100.00;100310.03;5049747;28;20413;-64
2023/07/04 02:19:20;;;;;;;15.73;4.85;;;;;;;14.00;100.00;100311.88;5050116;28;20044;-64
2023/07/04 02:21:47;;;;;;;13.70;4.70;;;;;;;13.93;100.00;100323.66;5050034;28;20119;-65
2023/07/04 02:24:14;;;;;;;23.80;5.47;;;;;;;13.96;100.00;100317.88;5049882;28;20468;-64
2023/07/04 02:26:40;;;;;;;16.88;4.70;;;;;;;13.95;100.00;100316.22;5050128;28;20075;-65
2023/07/04 02:29:07;;;;;;;12.07;4.65;;;;;;;13.96;100.00;100323.25;5050625;28;20045;-65
2023/07/04 02:31:33;;;;;;;13.85;4.30;;;;;;;13.98;100.00;100308.56;5050008;28;20489;-65
2023/07/04 02:34:00;;;;;;;17.55;4.97;;;;;;;13.94;100.00;100312.69;5050357;28;20102;-65
2023/07/04 02:36:26;;;;;;;11.27;4.30;;;;;;;13.86;100.00;100310.09;5050392;28;20052;-63
2023/07/04 02:38:53;;;;;;;17.67;4.95;;;;;;;13.86;100.00;100311.97;5049942;28;20049;-63
2023/07/04 02:41:20;;;;;;;18.13;5.15;;;;;;;13.84;100.00;100309.47;5050670;28;20467;-64
2023/07/04 02:43:46;;;;;;;14.23;5.10;;;;;;;13.90;100.00;100318.63;5049605;28;20079;-65
2023/07/04 02:46:13;;;;;;;14.25;5.00;;;;;;;13.86;100.00;100323.56;5050086;28;20075;-65
2023/07/04 02:48:40;;;;;;;12.98;5.00;;;;;;;13.85;100.00;100319.22;5049703;28;20103;-64
2023/07/04 02:51:06;;;;;;;19.02;5.22;;;;;;;13.77;100.00;100317.47;5049513;28;20073;-64
2023/07/04 02:53:33;;;;;;;14.25;4.63;;;;;;;13.80;100.00;100311.72;5049842;28;20094;-65
2023/07/04 02:55:59;;;;;;;14.18;4.60;;;;;;;13.82;100.00;100320.44;5049921;28;20049;-64
2023/07/04 02:58:26;;;;;;;13.50;4.90;;;;;;;13.90;100.00;100324.03;5050000;28;20048;-63
2023/07/04 03:00:53;;;;;;;12.85;4.97;;;;;;;13.94;100.00;100312.69;5049926;28;20094;-64
2023/07/04 03:03:21;;;;;;;14.68;4.53;;;;;;;13.85;100.00;100313.81;5049959;28;20049;-65
2023/07/04 03:05:48;;;;;;;10.68;4.40;;;;;;;13.85;100.00;100315.69;5048479;28;20480;-64
2023/07/04 03:08:15;;;;;;;14.13;5.18;;;;;;;13.82;100.00;100317.72;5049784;28;20099;-65
2023/07/04 03:10:47;;;;;;;14.48;5.18;;;;;;;13.83;100.00;100315.88;5049322;28;20497;-64
2023/07/04 03:13:14;;;;;;;10.65;4.97;;;;;;;13.93;100.00;100316.38;5049333;28;20106;-65
2023/07/04 03:15:41;;;;;;;13.00;5.07;;;;;;;13.89;100.00;100320.50;5049499;28;20052;-64
2023/07/04 03:18:08;;;;;;;13.13;4.93;;;;;;;13.80;100.00;100324.31;5049275;28;20037;-65
2023/07/04 03:20:35;;;;;;;14.35;4.88;;;;;;;13.81;100.00;100329.56;5049367;28;20460;-65
2023/07/04 03:23:03;;;;;;;11.98;4.90;;;;;;;13.73;100.00;100326.91;5049654;28;20448;-65
2023/07/04 03:25:30;;;;;;;13.63;4.85;;;;;;;13.76;100.00;100333.84;5049969;28;20451;-66
2023/07/04 03:27:56;;;;;;;18.23;5.10;;;;;;;13.70;100.00;100332.72;5049324;28;20068;-64
2023/07/04 03:30:23;;;;;;;14.20;5.57;;;;;;;13.65;100.00;100332.44;5049769;28;20484;-64
2023/07/04 03:32:49;;;;;;;13.30;4.82;;;;;;;13.68;100.00;100336.63;5049153;28;20048;-65
2023/07/04 03:35:16;;;;;;;15.57;5.20;;;;;;;13.78;100.00;100332.63;5050598;28;20128;-64
2023/07/04 03:37:42;;;;;;;21.08;5.35;;;;;;;13.78;100.00;100332.63;5053425;28;20413;-64
2023/07/04 03:40:10;;;;;;;16.77;5.78;;;;;;;13.77;100.00;100336.34;5052828;28;20056;-64
2023/07/04 03:42:39;;;;;;;19.50;5.18;;;;;;;13.65;100.00;100343.22;5053441;28;20049;-65
2023/07/04 03:45:07;;;;;;;12.07;5.03;;;;;;;13.75;100.00;100340.22;5053319;28;20040;-65
2023/07/04 03:47:34;;;;;;;14.55;4.95;;;;;;;13.71;100.00;100342.47;5053620;28;20044;-64
2023/07/04 03:50:01;;;;;;;14.63;5.50;;;;;;;13.67;100.00;100343.88;5053245;28;20052;-64
2023/07/04 03:52:28;;;;;;;14.85;5.22;;;;;;;13.70;100.00;100351.59;5053248;28;20473;-64
2023/07/04 03:54:54;;;;;;;11.70;4.57;;;;;;;13.70;100.00;100340.81;5053132;28;20045;-63
2023/07/04 03:57:21;;;;;;;14.00;5.10;;;;;;;13.69;100.00;100349.91;5053862;28;20052;-64
2023/07/04 03:59:48;;;;;;;13.18;5.45;;;;;;;13.80;100.00;100349.47;5052799;28;20091;-65
2023/07/04 04:02:14;;;;;;;16.17;5.20;;;;;;;14.00;100.00;100354.22;5053448;28;20045;-64
2023/07/04 04:04:41;;;;;;;14.50;6.07;;;;;;;13.93;100.00;100356.84;5053145;28;20073;-63
2023/07/04 04:07:10;;;;;;;19.73;5.50;;;;;;;13.97;100.00;100357.28;5052157;28;20044;-63
2023/07/04 04:09:37;;;;;;;15.10;4.60;;;;;;;14.02;100.00;100371.06;5052909;28;20044;-64
2023/07/04 04:12:06;;;;;;;14.65;6.18;;;;;;;14.03;100.00;100370.00;5052574;28;20452;-64
2023/07/04 04:14:35;;;;;;;17.30;5.10;;;;;;;14.00;100.00;100373.09;5052817;28;20048;-63
2023/07/04 04:17:02;;;;;;;20.15;5.68;;;;;;;13.97;100.00;100374.28;5052822;28;20497;-65
2023/07/04 04:19:28;;;;;;;12.95;5.68;;;;;;;13.95;100.00;100378.22;5052919;28;20091;-63
2023/07/04 04:21:55;;;;;;;12.43;5.80;;;;;;;13.89;100.00;100381.69;5052244;28;20045;-64
2023/07/04 04:24:22;;;;;;;14.65;5.22;;;;;;;14.03;100.00;100389.72;5053151;28;20098;-65
2023/07/04 04:26:49;;;;;;;10.30;4.95;;;;;;;14.01;100.00;100386.41;5052686;28;20050;-65
2023/07/04 04:29:17;;;;;;;14.35;5.68;;;;;;;14.02;100.00;100388.06;5052118;28;20775;-64
2023/07/04 04:31:48;;;;;;;18.00;5.53;;;;;;;14.03;100.00;100394.28;5052677;28;20445;-64
2023/07/04 04:34:21;;;;;;;14.63;5.65;;;;;;;13.95;100.00;100391.72;5052214;28;20075;-64
2023/07/04 04:36:48;;;;;;;15.07;5.53;;;;;;;14.02;100.00;100395.31;5051841;28;20049;-65
2023/07/04 04:39:15;;;;;;;14.95;5.30;;;;;;;14.04;100.00;100391.38;5052627;28;20099;-65
2023/07/04 04:41:41;;;;;;;18.48;5.88;;;;;;;14.06;100.00;100399.31;5051154;28;20059;-65
2023/07/04 04:44:09;;;;;;;14.43;5.45;;;;;;;14.22;100.00;100409.00;5052209;28;20045;-66
2023/07/04 04:46:35;;;;;;;16.73;5.00;;;;;;;14.20;100.00;100401.09;5050475;28;20049;-64
2023/07/04 04:49:02;;;;;;;12.95;5.30;;;;;;;14.24;100.00;100402.38;5051865;28;20079;-64
2023/07/04 04:51:30;;;;;;;15.85;6.25;;;;;;;14.33;100.00;100405.81;5051847;28;20067;-64
2023/07/04 04:53:57;;;;;;;15.20;5.63;;;;;;;14.37;100.00;100417.06;5051591;28;20037;-64
2023/07/04 04:56:24;;;;;;;14.13;4.75;;;;;;;14.50;100.00;100414.50;5052036;28;20040;-63
2023/07/04 04:58:52;;;;;;;14.93;5.28;;;;;;;14.53;100.00;100408.69;5051576;28;20428;-64
2023/07/04 05:01:22;;;;;;;12.95;4.25;;;;;;;14.60;100.00;100423.09;5045967;28;20048;-65
2023/07/04 05:03:52;;;;;;;18.33;6.32;;;;;;;14.72;100.00;100421.56;5039543;28;20424;-65
2023/07/04 05:06:21;;;;;;;21.80;5.22;;;;;;;14.79;100.00;100429.72;5050378;28;20045;-65
2023/07/04 05:08:48;;;;;;;12.93;5.10;;;;;;;14.85;100.00;100430.81;5051110;28;20044;-65
2023/07/04 05:11:15;;;;;;;14.93;5.72;;;;;;;14.89;100.00;100438.31;5050707;28;20053;-65
2023/07/04 05:13:45;;;;;;;26.25;7.03;;;;;;;15.22;100.00;100429.59;5051720;28;20340;-64
2023/07/04 05:16:14;;;;;;;19.70;5.55;;;;;;;15.43;100.00;100424.16;5050735;28;20045;-64
2023/07/04 05:18:43;;;;;;;14.80;5.50;;;;;;;15.52;100.00;100427.50;5051639;28;20053;-65
2023/07/04 05:21:12;;;;;;;13.98;5.68;;;;;;;15.53;100.00;100429.16;5051385;28;20123;-64
2023/07/04 05:23:41;;;;;;;12.85;4.82;;;;;;;15.49;100.00;100438.72;5051685;28;20095;-64
2023/07/04 05:26:12;;;;;;;29.17;5.93;;;;;;;15.44;100.00;100441.19;5051029;28;20045;-64
2023/07/04 05:28:39;;;;;;;11.57;4.82;;;;;;;15.32;100.00;100448.19;5050743;28;20455;-64
2023/07/04 05:31:10;;;;;;;15.95;5.13;;;;;;;15.40;100.00;100453.44;5050718;28;20489;-65
2023/07/04 05:33:41;;;;;;;18.35;5.13;;;;;;;15.43;100.00;100451.19;5050612;28;20135;-65
2023/07/04 05:36:28;;;;;;;16.77;4.78;;;;;;;15.58;100.00;100452.94;5051015;28;20116;-66
2023/07/04 05:38:59;;;;;;;18.50;5.32;;;;;;;15.55;100.00;100464.13;5050499;28;20056;-65
2023/07/04 05:41:28;;;;;;;13.20;5.10;;;;;;;15.62;100.00;100465.00;5050950;28;20048;-64
2023/07/04 05:43:57;;;;;;;14.10;4.90;;;;;;;15.70;100.00;100471.09;5050647;28;20451;-64
2023/07/04 05:46:24;;;;;;;12.77;4.95;;;;;;;15.56;100.00;100469.34;5051305;28;20079;-65
2023/07/04 05:48:51;;;;;;;15.48;5.40;;;;;;;15.69;100.00;100482.97;5050984;28;20118;-65
2023/07/04 05:51:18;;;;;;;13.30;5.38;;;;;;;15.62;100.00;100483.94;5050246;28;20052;-65
2023/07/04 05:53:50;;;;;;;15.07;5.50;;;;;;;15.69;100.00;100482.97;5050726;28;20103;-65
2023/07/04 05:56:20;;;;;;;15.48;5.35;;;;;;;15.77;100.00;100483.81;5050650;28;20490;-65
2023/07/04 05:58:52;;;;;;;17.15;6.03;;;;;;;15.83;100.00;100483.03;5049629;28;20710;-65
2023/07/04 06:01:19;;;;;;;18.95;5.82;;;;;;;15.87;100.00;100484.31;5050024;28;20049;-65
2023/07/04 06:03:45;;;;;;;19.08;5.30;;;;;;;15.93;100.00;100469.97;5050574;28;20048;-64
2023/07/04 06:06:25;;;;;;;14.02;5.50;;;;;;;15.83;100.00;100456.00;5049750;28;20068;-64
2023/07/04 06:08:53;;;;;;;18.70;5.53;;;;;;;15.88;100.00;100469.72;5049204;28;20041;-64
2023/07/04 06:11:21;;;;;;;22.45;6.40;;;;;;;15.85;100.00;100475.56;5050806;28;20401;-65
2023/07/04 06:13:48;;;;;;;15.10;5.20;;;;;;;15.87;100.00;100479.72;5049905;28;20049;-65
2023/07/04 06:16:15;;;;;;;14.30;4.93;;;;;;;16.01;100.00;100485.19;5049771;28;20465;-66
2023/07/04 06:18:43;;;;;;;16.73;5.22;;;;;;;16.01;100.00;100494.13;5050133;28;20419;-65
2023/07/04 06:21:15;;;;;;;20.33;5.47;;;;;;;15.97;100.00;100490.19;5049871;28;20404;-64
2023/07/04 06:23:46;;;;;;;29.50;5.57;;;;;;;15.98;100.00;100497.25;5050558;28;20056;-64
2023/07/04 06:26:13;;;;;;;13.02;4.80;;;;;;;16.09;100.00;100503.94;5050179;28;20408;-64
2023/07/04 06:28:42;;;;;;;20.38;4.95;;;;;;;16.11;100.00;100510.00;5050153;28;20485;-64
2023/07/04 06:31:16;;;;;;;14.80;4.00;;;;;;;16.15;100.00;100514.81;5049652;28;20071;-64
2023/07/04 06:33:43;;;;;;;12.05;4.47;;;;;;;16.13;100.00;100494.41;5049990;28;20562;-64
2023/07/04 06:36:12;;;;;;;16.50;4.80;;;;;;;16.19;100.00;100507.97;5049867;28;20123;-65
2023/07/04 06:38:38;;;;;;;11.00;3.90;;;;;;;16.16;100.00;100512.97;5049803;28;20501;-65
2023/07/04 06:41:11;;;;;;;13.40;4.03;;;;;;;16.21;100.00;100506.94;5050147;28;20060;-63
2023/07/04 06:43:40;;;;;;;13.32;3.95;;;;;;;16.30;100.00;100505.72;5049124;28;20049;-65
2023/07/04 06:46:08;;;;;;;13.43;4.47;;;;;;;16.30;100.00;100505.72;5049724;28;20041;-64
2023/07/04 06:48:35;;;;;;;16.38;3.70;;;;;;;16.45;100.00;100517.22;5049178;28;20045;-64
2023/07/04 06:51:12;;;;;;;12.95;4.07;;;;;;;16.56;99.96;100510.41;5049417;28;20041;-65
2023/07/04 06:53:39;;;;;;;13.50;4.30;;;;;;;16.71;98.29;100507.50;5049571;28;20044;-64
2023/07/04 06:56:10;;;;;;;11.13;4.05;;;;;;;16.70;97.59;100522.91;5050030;28;20095;-64
2023/07/04 06:58:40;;;;;;;;;;;;;;;16.64;95.79;100523.72;5049988;28;20075;-64
2023/07/04 07:01:07;;;;;;;10.65;3.72;;;;;;;16.72;93.79;100520.03;5049490;28;20364;-64
2023/07/04 07:03:34;;;;;;;8.85;3.67;;;;;;;16.80;93.64;100527.94;5049682;28;20132;-64
2023/07/04 07:06:03;;;;;;;16.50;3.60;;;;;;;16.80;92.11;100517.09;5049092;28;20049;-64
2023/07/04 07:08:30;;;;;;;12.65;3.85;;;;;;;16.92;90.34;100523.59;5048779;28;20048;-64
2023/07/04 07:11:02;;;;;;;15.88;4.50;;;;;;;16.84;90.96;100526.50;5048896;28;20045;-64
2023/07/04 07:13:30;;;;;;;10.07;3.35;;;;;;;17.00;89.99;100534.22;5049704;28;20114;-64
2023/07/04 07:16:08;;;;;;;12.98;4.20;;;;;;;17.22;87.83;100544.88;5049671;28;20049;-63
2023/07/04 07:18:35;;;;;;;9.95;3.80;;;;;;;17.45;85.00;100548.03;5049631;28;20116;-64
2023/07/04 07:21:03;;;;;;;8.88;4.10;;;;;;;17.60;81.55;100548.63;5049117;28;20459;-64
2023/07/04 07:23:31;;;;;;;11.57;4.40;;;;;;;17.90;78.41;100552.75;5048574;28;20098;-64
2023/07/04 07:25:59;;;;;;;12.15;4.47;;;;;;;17.99;77.25;100546.84;5049181;28;20045;-64
2023/07/04 07:28:29;;;;;;;12.20;4.45;;;;;;;18.19;74.11;100549.53;5049252;28;20056;-63
2023/07/04 07:31:00;;;;;;;16.30;4.65;;;;;;;18.13;71.01;100549.53;5049145;28;20081;-64
2023/07/04 07:33:28;;;;;;;12.40;4.40;;;;;;;18.49;71.15;100552.56;5049008;28;20065;-66
2023/07/04 07:35:55;;;;;;;9.73;4.63;;;;;;;18.74;68.97;100554.50;5049380;28;20449;-64
2023/07/04 07:38:21;;;;;;;9.68;3.70;;;;;;;18.50;69.01;100548.78;5049922;28;20049;-64
2023/07/04 07:40:52;;;;;;;13.48;4.72;;;;;;;18.42;67.32;100551.75;5049188;28;20087;-65
2023/07/04 07:43:19;;;;;;;6.90;3.38;;;;;;;18.29;66.90;100554.53;5049527;28;20045;-66
2023/07/04 07:45:46;;;;;;;10.05;3.50;;;;;;;18.24;66.83;100547.03;5048792;28;20049;-65
2023/07/04 07:48:13;;;;;;;9.55;3.47;;;;;;;18.49;65.92;100551.72;5049316;28;20086;-66
2023/07/04 07:50:41;;;;;;;12.75;3.80;;;;;;;18.86;64.08;100551.91;5049305;28;20053;-66
2023/07/04 07:53:07;;;;;;;7.63;3.10;;;;;;;19.07;62.71;100545.31;5048991;28;20049;-67
2023/07/04 07:55:34;;;;;;;11.45;3.83;;;;;;;19.24;61.55;100554.59;5049748;28;20041;-66
2023/07/04 07:58:01;;;;;;;8.35;3.17;;;;;;;19.22;60.48;100545.84;5048341;28;20068;-67
2023/07/04 08:00:29;;;;;;;9.90;3.42;;;;;;;19.48;59.68;100555.63;5049386;28;20055;-68
2023/07/04 08:02:55;;;;;;;9.70;2.75;;;;;;;19.81;58.89;100551.81;5049491;28;20053;-66
2023/07/04 08:05:22;;;;;;;8.30;2.83;;;;;;;20.28;57.48;100563.84;5049938;28;20055;-67
2023/07/04 08:07:48;;;;;;;13.20;3.38;;;;;;;19.87;58.04;100568.06;5048957;28;20377;-67
2023/07/04 08:10:15;;;;;;;9.25;3.15;;;;;;;19.99;57.08;100562.69;5048878;28;20099;-66
2023/07/04 08:12:41;;;;;;;15.15;3.08;;;;;;;20.41;55.00;100557.41;5049483;28;20053;-68
2023/07/04 08:15:10;;;;;;;12.88;3.17;;;;;;;20.64;55.21;100553.97;5048925;28;20073;-66
2023/07/04 08:17:37;;;;;;;11.60;3.42;;;;;;;20.83;54.12;100555.56;5049106;28;20566;-67
2023/07/04 08:20:05;;;;;;;11.75;3.13;;;;;;;20.64;53.91;100564.88;5048688;28;20377;-67
2023/07/04 08:22:32;;;;;;;12.40;3.05;;;;;;;20.41;54.05;100563.69;5052332;28;20045;-66
2023/07/04 08:24:59;;;;;;;9.00;3.72;;;;;;;20.77;51.61;100552.94;5052455;28;20049;-68
2023/07/04 08:27:26;;;;;;;9.15;2.83;;;;;;;20.52;51.32;100558.50;5052907;28;20511;-67
2023/07/04 08:29:53;;;;;;;8.40;2.55;;;;;;;20.11;53.71;100562.78;5053066;28;20096;-68
2023/07/04 08:32:19;;;;;;;9.70;2.90;;;;;;;20.08;53.89;100558.63;5052666;28;20037;-69
2023/07/04 08:34:46;;;;;;;9.93;3.05;;;;;;;20.35;53.15;100564.59;5051989;28;20048;-67
2023/07/04 08:37:14;;;;;;;7.75;2.97;;;;;;;20.13;53.92;100574.28;5052032;28;20409;-67
2023/07/04 08:39:46;;;;;;;10.77;3.38;;;;;;;19.72;54.42;100582.03;5052127;28;20045;-66
2023/07/04 08:42:17;;;;;;;17.92;4.00;;;;;;;19.84;53.78;100567.69;5052412;28;20049;-67
2023/07/04 08:44:48;;;;;;;15.27;3.40;;;;;;;20.09;51.77;100560.28;5052168;28;20099;-68
2023/07/04 08:47:16;;;;;;;;;;;;;;;20.67;49.60;100558.97;5052556;28;20114;-67
2023/07/04 08:49:43;;;;;;;7.50;2.95;;;;;;;20.72;49.60;100566.44;5052304;28;20334;-67
2023/07/04 08:52:17;;;;;;;7.53;2.85;;;;;;;20.88;47.74;100568.50;5051900;28;20095;-65
2023/07/04 08:54:44;;;;;;;8.27;2.90;;;;;;;21.02;48.91;100567.25;5052521;28;20041;-67
2023/07/04 08:57:29;;;;;;;14.82;2.95;;;;;;;20.91;49.39;100574.31;5052109;28;20053;-66
2023/07/04 09:00:05;;;;;;;9.88;2.90;;;;;;;20.63;49.00;100568.66;5051558;28;20044;-67
2023/07/04 09:02:45;;;;;;;9.10;2.83;;;;;;;20.40;49.70;100577.53;5051703;28;20479;-68
2023/07/04 09:05:16;;;;;;;9.80;2.38;;;;;;;20.53;49.71;100577.38;5051702;28;20049;-67
2023/07/04 09:07:58;;;;;;;11.00;2.97;;;;;;;21.37;47.54;100564.59;5051938;28;20492;-70
2023/07/04 09:10:33;;;;;;;11.00;3.13;;;;;;;21.55;45.46;100577.31;5051984;28;20107;-65
2023/07/04 09:13:02;;;;;;;7.43;2.47;;;;;;;21.59;46.31;100570.31;5052050;28;20049;-67
2023/07/04 09:15:33;;;;;;;15.25;2.95;;;;;;;22.08;44.60;100562.72;5051722;28;20040;-67
2023/07/04 09:18:18;;;;;;;7.70;2.60;;;;;;;22.15;45.00;100572.66;5051754;28;20041;-65
2023/07/04 09:21:15;;;;;;;11.40;2.92;;;;;;;21.61;45.83;100587.28;5051433;28;20064;-66
2023/07/04 09:23:44;;;;;;;12.45;2.70;;;;;;;21.37;46.34;100580.16;5043901;28;20064;-68
2023/07/04 09:26:16;;;;;;;9.35;2.55;;;;;;;21.95;44.48;100578.53;5051097;28;20051;-66
2023/07/04 09:28:45;;;;;;;9.88;2.38;;;;;;;22.16;43.53;100586.09;5051887;28;20055;-67
2023/07/04 09:31:16;;;;;;;8.82;2.45;;;;;;;22.55;42.62;100581.72;5051551;28;20049;-67
2023/07/04 09:33:47;;;;;;;8.20;2.50;;;;;;;22.64;42.57;100592.28;5050586;28;20076;-69
2023/07/04 09:36:16;;;;;;;11.45;2.63;;;;;;;22.99;41.55;100594.88;5051466;28;20094;-67
2023/07/04 09:38:51;;;;;;;5.63;2.47;;;;;;;22.45;41.74;100586.13;5051918;28;20122;-67
2023/07/04 09:41:18;;;;;;;7.78;2.35;;;;;;;21.57;43.81;100585.28;5051784;28;20044;-67
2023/07/04 09:43:44;;;;;;;18.52;4.70;;;;;;;21.38;43.93;100579.06;5051103;28;20056;-68
2023/07/04 09:46:15;;;;;;;16.73;3.30;;;;;;;20.92;44.71;100586.88;5050756;28;20067;-67
2023/07/04 09:48:42;;;;;;;;;;;;;;;21.36;43.72;100592.97;5051605;28;20119;-67
2023/07/04 09:51:35;;;;;;;9.48;2.28;;;;;;;22.33;41.72;100588.91;5051323;28;19920;-66
2023/07/04 09:54:11;;;;;;;7.63;2.28;;;;;;;23.56;40.43;100597.50;5050034;28;20055;-65
2023/07/04 09:56:38;;;;;;;6.88;2.25;;;;;;;24.11;39.36;100604.91;5056371;28;20045;-68
2023/07/04 09:59:09;;;;;;;11.50;2.10;;;;;;;24.29;38.29;100602.94;5054108;28;20041;-66
2023/07/04 10:01:44;;;;;;;9.32;2.47;;;;;;;24.53;37.35;100590.66;5051366;28;20095;-67
2023/07/04 10:04:13;;;;;;;8.70;2.40;;;;;;;25.17;36.62;100581.75;5051083;28;20045;-69
2023/07/04 10:06:43;;;;;;;10.32;2.38;;;;;;;25.86;35.47;100591.91;5051229;28;20394;-67
2023/07/04 10:09:18;;;;;;;10.10;2.65;;;;;;;24.80;36.72;100598.09;5051568;28;20044;-68
2023/07/04 10:11:50;;;;;;;9.98;2.25;;;;;;;24.17;37.14;100589.38;5051432;28;20056;-68
2023/07/04 10:14:17;;;;;;;;;;;;;;;24.86;36.83;100586.09;5050452;28;20040;-67
2023/07/04 10:16:45;;;;;;;6.03;2.13;;;;;;;24.73;36.06;100591.97;5051007;28;19959;-66
2023/07/04 10:19:18;;;;;;;8.77;2.45;;;;;;;24.54;37.21;100592.34;5051032;28;20057;-67
2023/07/04 10:21:53;;;;;;;5.78;1.92;;;;;;;24.87;36.42;100593.22;5050887;28;20512;-67
2023/07/04 10:24:25;;;;;;;10.40;2.15;;;;;;;24.00;37.71;100594.88;5051121;28;20474;-68
2023/07/04 10:26:56;;;;;;;5.60;1.90;;;;;;;22.06;41.30;100596.81;5050062;28;20052;-67
2023/07/04 10:29:33;;;;;;;10.30;2.13;;;;;;;21.99;41.67;100588.72;5051362;28;20049;-66
2023/07/04 10:32:06;;;;;;;6.88;2.22;;;;;;;21.94;41.85;100598.69;5050951;28;20095;-67
2023/07/04 10:34:35;;;;;;;7.78;1.88;;;;;;;22.56;41.20;100593.50;5050568;28;20069;-67
2023/07/04 10:37:03;;;;;;;7.20;2.08;;;;;;;21.29;42.13;100592.25;5050348;28;20049;-66
2023/07/04 10:39:32;;;;;;;9.05;2.13;;;;;;;20.79;43.83;100600.72;5050911;28;20045;-68
2023/07/04 10:42:16;;;;;;;7.57;2.22;;;;;;;20.41;44.86;100596.38;5049859;28;20508;-65
2023/07/04 10:44:47;;;;;;;11.38;2.88;;;;;;;19.93;46.01;100604.44;5050507;28;20049;-66
2023/07/04 10:47:22;;;;;;;13.07;2.20;;;;;;;19.70;46.69;100599.66;5050208;28;20068;-65
2023/07/04 10:49:59;;;;;;;10.13;2.15;;;;;;;19.41;48.25;100596.50;5050645;28;20052;-68
2023/07/04 10:52:33;;;;;;;5.47;2.33;;;;;;;19.04;49.30;100600.97;5049848;28;20045;-65
2023/07/04 10:55:01;;;;;;;6.10;2.08;;;;;;;18.79;50.19;100604.44;5050327;28;20114;-65
2023/07/04 10:57:56;;;;;;;16.08;2.80;;;;;;;18.52;51.65;100614.59;5050150;28;20072;-65
2023/07/04 11:00:34;;;;;;;11.02;2.38;;;;;;;18.58;52.13;100612.06;5050254;28;20503;-65
2023/07/04 11:03:14;;;;;;;7.28;2.28;;;;;;;18.49;51.97;100620.47;5049729;28;20114;-66
2023/07/04 11:05:51;;;;;;;7.38;2.35;;;;;;;18.83;52.81;100615.72;5049939;28;20052;-66
2023/07/04 11:08:21;;;;;;;6.40;2.40;;;;;;;19.49;51.12;100618.00;5049837;28;20053;-66
2023/07/04 11:10:51;;;;;;;10.90;2.75;;;;;;;20.31;49.28;100603.41;5049862;28;20048;-66
2023/07/04 11:13:20;;;;;;;4.53;2.03;;;;;;;20.52;48.57;100608.41;5050112;28;20451;-66
2023/07/04 11:15:53;;;;;;;5.80;2.15;;;;;;;20.35;49.20;100613.63;5049861;28;20052;-66
2023/07/04 11:18:26;;;;;;;8.25;2.17;;;;;;;20.08;49.69;100606.81;5050154;28;20416;-65
2023/07/04 11:21:06;;;;;;;10.13;2.53;;;;;;;19.68;50.96;100618.09;5049715;28;20064;-66
2023/07/04 11:23:50;;;;;;;8.15;2.55;;;;;;;19.23;52.32;100616.31;5049475;28;20106;-65
2023/07/04 11:26:19;;;;;;;7.85;2.33;;;;;;;18.89;53.43;100631.13;5049543;28;20111;-66
2023/07/04 11:28:49;;;;;;;10.35;2.80;;;;;;;18.64;54.55;100622.91;5049704;28;20053;-66